createdAt,value
2022-08-28T00:03:28.566Z,19.20
2022-08-28T00:08:32.204Z,19.20
2022-08-28T00:13:33.945Z,19.20
2022-08-28T00:18:35.698Z,19.10
2022-08-28T00:23:42.952Z,19.10
2022-08-28T00:28:44.866Z,19.00
2022-08-28T00:33:48.180Z,19.00
2022-08-28T00:38:49.933Z,19.00
2022-08-28T00:43:51.674Z,19.00
2022-08-28T00:48:53.239Z,19.00
2022-08-28T00:53:58.556Z,18.90
2022-08-28T00:59:00.713Z,18.90
2022-08-28T01:04:02.444Z,18.90
2022-08-28T01:09:03.995Z,18.90
2022-08-28T01:14:05.666Z,18.90
2022-08-28T01:19:07.416Z,18.90
2022-08-28T01:24:09.148Z,19.00
2022-08-28T01:29:10.918Z,19.00
2022-08-28T01:34:12.694Z,19.00
2022-08-28T01:39:14.428Z,19.00
2022-08-28T01:44:18.204Z,19.00
2022-08-28T01:49:20.142Z,19.00
2022-08-28T01:54:21.895Z,19.00
2022-08-28T01:59:24.269Z,19.00
2022-08-28T02:04:31.817Z,19.00
2022-08-28T02:09:34.028Z,19.00
2022-08-28T02:14:35.793Z,19.00
2022-08-28T02:19:37.444Z,19.00
2022-08-28T02:24:39.294Z,18.90
2022-08-28T02:29:42.009Z,18.90
2022-08-28T02:34:43.790Z,18.80
2022-08-28T02:39:45.419Z,18.80
2022-08-28T02:44:47.302Z,18.80
2022-08-28T02:49:49.019Z,18.80
2022-08-28T02:54:50.778Z,18.80
2022-08-28T02:59:52.538Z,18.80
2022-08-28T03:04:54.310Z,18.80
2022-08-28T03:09:56.054Z,18.70
2022-08-28T03:14:57.786Z,18.70
2022-08-28T03:19:59.572Z,18.70
2022-08-28T03:25:01.294Z,18.70
2022-08-28T03:30:03.052Z,18.80
2022-08-28T03:35:04.794Z,18.80
2022-08-28T03:40:06.572Z,18.80
2022-08-28T03:45:08.307Z,18.90
2022-08-28T03:50:10.081Z,18.90
2022-08-28T03:55:12.757Z,18.90
2022-08-28T04:00:14.535Z,18.80
2022-08-28T04:05:16.266Z,18.80
2022-08-28T04:10:18.023Z,18.80
2022-08-28T04:15:19.784Z,18.80
2022-08-28T04:20:21.558Z,18.80
2022-08-28T04:25:23.262Z,18.80
2022-08-28T04:30:26.298Z,18.80
2022-08-28T04:35:27.965Z,18.80
2022-08-28T04:40:29.849Z,18.90
2022-08-28T04:45:31.583Z,19.00
2022-08-28T04:50:33.178Z,19.00
2022-08-28T04:55:53.908Z,19.10
2022-08-28T05:00:56.612Z,19.20
2022-08-28T05:05:58.307Z,19.20
2022-08-28T05:11:00.069Z,19.30
2022-08-28T05:16:01.856Z,19.30
2022-08-28T05:21:03.478Z,19.40
2022-08-28T05:26:05.321Z,19.50
2022-08-28T05:31:07.202Z,19.60
2022-08-28T05:36:08.811Z,19.70
2022-08-28T05:41:10.593Z,19.80
2022-08-28T05:46:12.434Z,19.90
2022-08-28T05:51:14.114Z,20.00
2022-08-28T05:56:16.188Z,20.10
2022-08-28T06:01:17.750Z,20.20
2022-08-28T06:06:19.370Z,20.30
2022-08-28T06:11:20.988Z,20.50
2022-08-28T06:16:26.132Z,20.60
2022-08-28T06:21:28.087Z,20.80
2022-08-28T06:26:29.812Z,20.90
2022-08-28T06:31:33.363Z,21.00
2022-08-28T06:36:35.543Z,21.20
2022-08-28T06:41:37.299Z,21.30
2022-08-28T06:46:38.864Z,21.40
2022-08-28T06:51:40.533Z,21.50
2022-08-28T06:56:42.246Z,21.70
2022-08-28T07:01:44.079Z,21.80
2022-08-28T07:06:47.118Z,21.90
2022-08-28T07:11:50.023Z,22.00
2022-08-28T07:16:52.031Z,22.10
2022-08-28T07:21:53.776Z,22.40
2022-08-28T07:26:55.376Z,22.60
2022-08-28T07:31:57.014Z,22.90
2022-08-28T07:36:58.567Z,23.20
2022-08-28T07:42:00.119Z,23.30
2022-08-28T07:47:01.930Z,23.40
2022-08-28T07:52:03.721Z,23.60
2022-08-28T07:57:05.288Z,23.80
2022-08-28T08:02:06.855Z,23.70
2022-08-28T08:07:08.415Z,23.50
2022-08-28T08:12:10.376Z,23.50
2022-08-28T08:17:12.166Z,23.50
2022-08-28T08:22:13.737Z,23.60
2022-08-28T08:27:15.422Z,23.70
2022-08-28T08:32:17.133Z,24.10
2022-08-28T08:37:18.894Z,24.40
2022-08-28T08:42:20.449Z,24.50
2022-08-28T08:47:22.085Z,24.70
2022-08-28T08:52:23.749Z,24.40
2022-08-28T08:57:25.334Z,24.20
2022-08-28T09:02:31.338Z,24.10
2022-08-28T09:07:33.210Z,24.20
2022-08-28T09:12:34.773Z,24.60
2022-08-28T09:17:36.373Z,24.90
2022-08-28T09:22:38.082Z,25.10
2022-08-28T09:27:40.817Z,25.30
2022-08-28T09:32:42.614Z,25.40
2022-08-28T09:37:44.309Z,25.70
2022-08-28T09:42:46.058Z,25.90
2022-08-28T09:47:47.934Z,25.50
2022-08-28T09:52:49.519Z,25.60
2022-08-28T09:57:51.353Z,25.70
2022-08-28T10:02:52.907Z,25.70
2022-08-28T10:07:57.684Z,25.60
2022-08-28T10:12:59.449Z,25.40
2022-08-28T10:18:01.071Z,25.40
2022-08-28T10:23:02.633Z,25.50
2022-08-28T10:28:04.286Z,25.60
2022-08-28T10:33:05.954Z,25.90
2022-08-28T10:38:07.555Z,26.10
2022-08-28T10:43:09.329Z,26.30
2022-08-28T10:48:11.073Z,26.30
2022-08-28T10:53:12.626Z,26.20
2022-08-28T10:58:24.098Z,26.00
2022-08-28T11:03:35.293Z,25.60
2022-08-28T11:08:37.205Z,25.20
2022-08-28T11:13:38.811Z,24.80
2022-08-28T11:18:40.422Z,24.50
2022-08-28T11:23:42.153Z,24.70
2022-08-28T11:28:43.904Z,24.90
2022-08-28T11:33:45.666Z,25.30
2022-08-28T11:38:47.315Z,25.80
2022-08-28T11:43:49.178Z,26.30
2022-08-28T11:48:50.952Z,26.60
2022-08-28T11:53:52.690Z,26.60
2022-08-28T11:58:54.492Z,26.30
2022-08-28T12:03:56.141Z,26.10
2022-08-28T12:08:57.958Z,25.80
2022-08-28T12:13:59.548Z,25.70
2022-08-28T12:19:01.106Z,25.70
2022-08-28T12:24:08.972Z,25.60
2022-08-28T12:29:11.547Z,25.70
2022-08-28T12:34:13.289Z,25.70
2022-08-28T12:39:14.896Z,25.50
2022-08-28T12:44:16.448Z,25.40
2022-08-28T12:49:18.242Z,25.10
2022-08-28T12:54:20.004Z,25.00
2022-08-28T12:59:21.566Z,24.90
2022-08-28T13:04:29.177Z,24.90
2022-08-28T13:09:33.084Z,24.80
2022-08-28T13:14:34.862Z,24.70
2022-08-28T13:19:36.510Z,24.20
2022-08-28T13:24:38.362Z,23.30
2022-08-28T13:29:39.913Z,22.70
2022-08-28T13:34:47.802Z,22.20
2022-08-28T13:39:49.887Z,21.60
2022-08-28T13:44:51.541Z,21.10
2022-08-28T13:49:53.237Z,20.60
2022-08-28T13:54:54.837Z,20.10
2022-08-28T13:59:57.172Z,19.70
2022-08-28T14:04:58.795Z,19.60
2022-08-28T14:10:00.428Z,19.40
2022-08-28T14:15:02.190Z,19.40
2022-08-28T14:20:03.769Z,19.20
2022-08-28T14:25:05.400Z,19.20
2022-08-28T14:30:07.006Z,19.20
2022-08-28T14:35:14.725Z,19.10
2022-08-28T14:40:16.651Z,19.00
2022-08-28T14:45:18.330Z,19.10
2022-08-28T14:50:20.094Z,19.10
2022-08-28T14:55:21.763Z,19.10
2022-08-28T15:00:23.469Z,19.10
2022-08-28T15:05:25.060Z,19.10
2022-08-28T15:10:26.792Z,19.20
2022-08-28T15:15:28.561Z,19.10
2022-08-28T15:20:30.149Z,19.10
2022-08-28T15:25:32.081Z,19.00
2022-08-28T15:30:34.900Z,18.90
2022-08-28T15:35:36.519Z,18.80
2022-08-28T15:40:38.327Z,18.80
2022-08-28T15:45:40.084Z,18.80
2022-08-28T15:50:41.799Z,18.80
2022-08-28T15:55:44.463Z,18.80
2022-08-28T16:00:46.046Z,18.70
2022-08-28T16:05:47.675Z,18.70
2022-08-28T16:10:49.331Z,18.70
2022-08-28T16:15:51.130Z,18.70
2022-08-28T16:20:52.719Z,18.70
2022-08-28T16:25:54.287Z,18.70
2022-08-28T16:30:56.119Z,18.60
2022-08-28T16:35:57.899Z,18.60
2022-08-28T16:40:59.484Z,18.60
2022-08-28T16:46:01.548Z,18.60
2022-08-28T16:51:03.176Z,18.60
2022-08-28T16:56:04.924Z,18.50
2022-08-28T17:01:06.705Z,18.50
2022-08-28T17:06:09.357Z,18.50
2022-08-28T17:11:11.125Z,18.50
2022-08-28T17:16:12.915Z,18.50
2022-08-28T17:21:14.595Z,18.50
2022-08-28T17:26:16.366Z,18.50
2022-08-28T17:31:20.134Z,18.40
2022-08-28T17:36:33.512Z,18.50
2022-08-28T17:41:35.718Z,18.40
2022-08-28T17:46:38.321Z,18.40
2022-08-28T17:51:43.789Z,18.40
2022-08-28T17:56:46.024Z,18.30
2022-08-28T18:01:47.811Z,18.30
2022-08-28T18:06:49.394Z,18.30
2022-08-28T18:11:51.252Z,18.30
2022-08-28T18:16:53.085Z,18.20
2022-08-28T18:21:54.940Z,18.20
2022-08-28T18:26:56.848Z,18.20
2022-08-28T18:31:58.692Z,18.20
2022-08-28T18:37:00.445Z,18.20
2022-08-28T18:42:02.455Z,18.20
2022-08-28T18:47:04.217Z,18.20
2022-08-28T18:52:05.982Z,18.20
2022-08-28T18:57:07.687Z,18.20
2022-08-28T19:02:09.534Z,18.20
2022-08-28T19:07:11.341Z,18.20
2022-08-28T19:12:13.254Z,18.20
2022-08-28T19:17:19.160Z,18.20
2022-08-28T19:22:23.153Z,18.20
2022-08-28T19:27:24.868Z,18.20
2022-08-28T19:32:27.214Z,18.20
2022-08-28T19:37:28.967Z,18.20
2022-08-28T19:42:30.693Z,18.20
2022-08-28T19:47:35.421Z,18.20
2022-08-28T19:52:37.714Z,18.20
2022-08-28T19:57:39.420Z,18.20
2022-08-28T20:02:41.215Z,18.30
2022-08-28T20:07:42.911Z,18.30
2022-08-28T20:12:47.998Z,18.30
2022-08-28T20:17:52.056Z,18.30
2022-08-28T20:22:54.138Z,18.30
2022-08-28T20:28:00.941Z,18.30
2022-08-28T20:33:03.260Z,18.30
2022-08-28T20:38:04.880Z,18.30
2022-08-28T20:43:06.550Z,18.30
2022-08-28T20:48:08.239Z,18.30
2022-08-28T20:53:09.988Z,18.20
2022-08-28T20:58:13.597Z,18.20
2022-08-28T21:03:15.389Z,18.20
2022-08-28T21:08:17.106Z,18.10
2022-08-28T21:13:18.649Z,18.10
2022-08-28T21:18:20.316Z,18.10
2022-08-28T21:23:22.044Z,18.10
2022-08-28T21:28:23.825Z,18.00
2022-08-28T21:33:25.400Z,17.90
2022-08-28T21:38:26.973Z,17.90
2022-08-28T21:43:31.534Z,17.80
2022-08-28T21:48:33.371Z,17.80
2022-08-28T21:53:35.086Z,17.70
2022-08-28T21:58:36.839Z,17.60
2022-08-28T22:03:38.606Z,17.50
2022-08-28T22:08:40.360Z,17.50
2022-08-28T22:13:42.099Z,17.40
2022-08-28T22:18:45.105Z,17.30
2022-08-28T22:23:46.695Z,17.20
2022-08-28T22:28:48.303Z,17.00
2022-08-28T22:33:50.085Z,16.90
2022-08-28T22:38:53.336Z,16.80
2022-08-28T22:43:55.209Z,16.70
2022-08-28T22:48:56.763Z,16.70
2022-08-28T22:53:58.320Z,16.50
2022-08-28T22:59:00.195Z,16.50
2022-08-28T23:04:02.218Z,16.40
2022-08-28T23:09:03.821Z,16.30
2022-08-28T23:14:05.657Z,16.20
2022-08-28T23:19:09.096Z,16.10
2022-08-28T23:24:11.265Z,16.00
2022-08-28T23:29:12.827Z,15.90
2022-08-28T23:34:14.562Z,15.80
2022-08-28T23:39:16.107Z,15.70
2022-08-28T23:44:17.755Z,15.70
2022-08-28T23:49:22.533Z,15.60
2022-08-28T23:54:26.906Z,15.50
2022-08-28T23:59:29.260Z,15.50
